General Mitchell International Airport
KMKE : now visible

Airfield :











YOU CAN JOIN US ON...

 
LOGIN :

Register | Disclaimer

   EN    FR    IT 

 









Legend :    VFR   Marginal VFR   IFR   Intensive IFR   Very Intensive IFR
Visi :
Ceiling :
>= 8 km
>= 3000ft
5 to 8 km
1000 to 3000 ft
1500m to 5 km
500 to 1000 ft
800 to 1500m
200 to 500 ft
< 800m
< 200 ft
Symbols :   Thunderstorms  Fog  Heavy snow  Heavy precipitations  Wind > 20 kt






- Airport Elevation : 723 ft
- IATA code : MKE


KMKE - General Mitchell International

CURRENT METAR :
  • 092352Z 33017G31KT 10SM -SN BKN049 04/M04 A2978 RMK AO2 PK WND 34031/2347 SNB51 SLP091 P0000 60000 T00391044 10083 20033 53022

EXPIRED METARs :
  • 092252Z 31018G27KT 10SM FEW038 FEW070 06/M07 A2975 RMK AO2 PK WND 32031/2220 SNE2153 SLP080 P0000 T00611067
  • 092152Z 32011G35KT 6SM -SN FEW038 SCT050 BKN075 04/M03 A2973 RMK AO2 PK WND 31035/2146 SNB48 SLP072 VIS SE 2 P0000 T00441033

TAF KMKE
Valid from the 10 at 00:00 until the 11 at 06:00 UTC


092320Z 1000/1106 31016G26KT P6SM SCT050
TEMPO 1000/1001 6SM -PLSN BKN035
FM100500 31012G22KT P6SM FEW050
FM101200 31012KT P6SM FEW050
FM101800 29010G18KT P6SM FEW150
FM102300 27006KT P6SM SCT120



MET'MAP, your aeronautical weather chart ! - Copyright ORBIFLY December 2007 - Disclaimer

ORBIFLY MET'MAP TEAM :

Programming & Development : Alexandra Zaïnal
Concept & original design : Baudouin d'Aumeries
Assistance for programming : Marc-Olivier Méhu
Technical & hardware support : Manuel Goepfert

Contact : metmap@orbifly.com




SOURCES & CREDITS :

   NOAA       Earth
Advisory